Russellville, AR

4:41 PM CST on December 17, 2014 (GMT -0600)
Skyline Weather Station | Change Station
CLOSE
Current Station
Personal Weather Station
Location: Russellville, AR
Elevation: 710 ft
Nearby Weather Stations

Elev 710 ft 35.27 °N, 93.17 °W | Updated 8 seconds ago

Rain
Rain
36.2 °F
Feels Like 36 °F
N
2.0
Wind Variable Wind from ENE
Gusts 4.0 mph

Today
High -- | Low -- °F
--% Chance of Precip.
Yesterday
High -- | Low -- °F
Precip. -- in
7:15 AM 5:02 PM
Waning Crescent, 19% visible
Pressure 30.25 in
Visibility 7.0 miles
Clouds Overcast 8500 ft
Windchill 36 °F
Dew Point 33 °F
Humidity 88%
Rainfall 0.11 in
Snow Depth Not available.
UV 0 out of 12
Pollen 5.70 out of 12
Air Quality Not available.
Flu Activity Not available.
METAR KRUE 172153Z AUTO 00000KT 7SM -RA OVC085 03/01 A3024 RMK AO2 RAE23B47 SLP241 P0001 T00330011

More Conditions Fewer Conditions

Pressure 30.25 in
Visibility 7.0 miles
Clouds Overcast 8500 ft
Windchill 36 °F
Dew Point 33 °F
Humidity 88%
Rainfall 0.11 in
Snow Depth Not available.
UV 0 out of 12
Pollen 5.70 out of 12
Air Quality Not available.
Flu Activity Not available.
METAR KRUE 172153Z AUTO 00000KT 7SM -RA OVC085 03/01 A3024 RMK AO2 RAE23B47 SLP241 P0001 T00330011

More Conditions Fewer Conditions

10-Day Weather Forecast

Almanac

Astronomy

Dec. 17, 2014 Rise Set
Actual Time
Civil Twilight
Nautical Twilight
Astronomical Twilight
Moon
Length of Visible Light
Length of Day
Tomorrow will be .
, % of the Moon is Illuminated

Today's Extremes

State Highs State Lows

Community

WunderPhotos

Upload Photos

1,778,813 photos uploaded!

WunderBlogs® & News

Nearby

Air Quality

  Air Quality AQ Index Pollutant
Not available.

Snow Depth

Station Depth Elevation

Earthquake Activity

City Distance Mag. Time & Date
Minimum magnitude displayed is 2.5.

Coastal Water Temperatures

Place Temperature

Nearby Weather Stations